HHP weather

Shun Tak Heliport
Hong Kong, Hong Kong

Public forecast

Using degrees Celsius for public forecast. Weather courtesy of forecast.io.

METAR (pilot weather report)

Closest report is Hong Kong International Airport, 13.2 nm (24.5 km) W. Retrieved 2019/09/20 17:30 UTC (9 minutes ago):

VHHH 201730Z 35008KT CAVOK 29/14 Q1008 NOSIG

TAF (pilot weather forecast)

Closest forecast is Hong Kong International Airport, 13.2 nm (24.5 km) W. Retrieved 2019/09/20 12:21 UTC (5 hours ago):

TAF VHHH 201100Z 2012/2118 34015KT CAVOK TX31/2106Z TN25/2022Z